Time;durP1;ratioP1;P1;durP2;ratioP2;P2;SDS_P1;SDS_P2;PMS_P1;PMS_P2;Temp;Humidity;BMP_temperature;BMP_pressure;BME280_temperature;BME280_humidity;BME280_pressure;Samples;Min_cycle;Max_cycle;Signal;HPM_P1;HPM_P2
2023/01/03 00:00:49;;;;;;;0.10;0.10;;;8.00;99.90;;;;;;5053108;28;21099;-80
2023/01/03 00:03:16;;;;;;;0.10;0.10;;;7.90;99.90;;;;;;5068119;28;20291;-81
2023/01/03 00:05:46;;;;;;;0.10;0.10;;;7.90;99.90;;;;;;5069792;28;20188;-81
2023/01/03 00:08:12;;;;;;;0.00;0.00;;;7.80;99.90;;;;;;5054883;28;20178;-80
2023/01/03 00:10:38;;;;;;;0.10;0.10;;;7.80;99.90;;;;;;5070539;28;20229;-81
2023/01/03 00:13:04;;;;;;;0.10;0.10;;;7.80;99.90;;;;;;5056169;28;21168;-81
2023/01/03 00:15:29;;;;;;;0.07;0.07;;;7.80;99.90;;;;;;5066958;28;20203;-81
2023/01/03 00:17:55;;;;;;;0.00;0.00;;;7.80;99.90;;;;;;5065635;28;20238;-80
2023/01/03 00:20:21;;;;;;;0.10;0.10;;;7.90;99.90;;;;;;5049744;28;20237;-80
2023/01/03 00:22:47;;;;;;;0.10;0.10;;;7.80;99.90;;;;;;5069458;28;20208;-80
2023/01/03 00:25:13;;;;;;;0.10;0.10;;;7.80;99.90;;;;;;5050728;28;20265;-81
2023/01/03 00:27:38;;;;;;;0.00;0.00;;;7.80;99.90;;;;;;5050901;28;20196;-81
2023/01/03 00:30:05;;;;;;;0.00;0.00;;;7.60;99.90;;;;;;5055008;28;20220;-80
2023/01/03 00:32:31;;;;;;;0.10;0.10;;;7.50;99.90;;;;;;5054361;28;20206;-80
2023/01/03 00:34:56;;;;;;;0.10;0.10;;;7.40;99.90;;;;;;5059033;28;20620;-79
2023/01/03 00:37:22;;;;;;;0.10;0.10;;;7.40;99.90;;;;;;5056544;28;20263;-80
2023/01/03 00:39:47;;;;;;;0.10;0.10;;;7.30;99.90;;;;;;5071247;28;20748;-80
2023/01/03 00:42:12;;;;;;;0.10;0.10;;;7.30;99.90;;;;;;5056110;28;20771;-80
2023/01/03 00:44:38;;;;;;;0.10;0.10;;;7.20;99.90;;;;;;5071636;28;20198;-81
2023/01/03 00:47:04;;;;;;;0.10;0.10;;;7.10;99.90;;;;;;5071880;28;20198;-79
2023/01/03 00:49:29;;;;;;;0.10;0.10;;;7.20;99.90;;;;;;5059220;28;20683;-80
2023/01/03 00:51:55;;;;;;;0.10;0.10;;;7.20;99.90;;;;;;5072741;28;20208;-80
2023/01/03 00:54:21;;;;;;;0.00;0.00;;;7.10;99.90;;;;;;5057822;28;20173;-80
2023/01/03 00:56:48;;;;;;;0.10;0.10;;;7.00;99.90;;;;;;5057234;28;20182;-81
2023/01/03 00:59:15;;;;;;;0.10;0.10;;;7.00;99.90;;;;;;5073105;28;20206;-80
2023/01/03 01:01:44;;;;;;;0.10;0.10;;;7.10;99.90;;;;;;5070623;28;20198;-80
2023/01/03 01:04:16;;;;;;;0.10;0.10;;;7.20;99.90;;;;;;5054834;28;20182;-81
2023/01/03 01:06:50;;;;;;;0.10;0.10;;;7.20;99.90;;;;;;5072543;28;20185;-80
2023/01/03 01:09:19;;;;;;;0.10;0.10;;;7.20;99.90;;;;;;5055661;28;20183;-81
2023/01/03 01:11:45;;;;;;;0.10;0.10;;;7.30;99.90;;;;;;5071645;28;20228;-81
2023/01/03 01:14:19;;;;;;;0.10;0.10;;;7.20;99.90;;;;;;5054618;28;20710;-80
2023/01/03 01:16:55;;;;;;;0.10;0.10;;;7.20;99.90;;;;;;5070957;28;20192;-80
2023/01/03 01:19:28;;;;;;;0.10;0.10;;;7.20;99.90;;;;;;5057123;28;20291;-80
2023/01/03 01:21:54;;;;;;;0.10;0.10;;;7.20;99.90;;;;;;5070341;28;20587;-80
2023/01/03 01:24:19;;;;;;;0.10;0.10;;;7.30;99.90;;;;;;5053281;28;20182;-79
2023/01/03 01:26:46;;;;;;;0.10;0.10;;;7.30;99.90;;;;;;5055798;28;20186;-80
2023/01/03 01:29:13;;;;;;;0.10;0.10;;;7.30;99.90;;;;;;5053302;28;20186;-79
2023/01/03 01:31:39;;;;;;;0.10;0.10;;;7.30;99.90;;;;;;5051821;28;20223;-81
2023/01/03 01:34:05;;;;;;;0.00;0.00;;;7.20;99.90;;;;;;5056289;28;20438;-80
2023/01/03 01:36:36;;;;;;;0.10;0.10;;;7.10;99.90;;;;;;5053001;28;20193;-80
2023/01/03 01:39:10;;;;;;;0.00;0.00;;;7.10;99.90;;;;;;5069467;28;20534;-81
2023/01/03 01:44:56;;;;;;;0.00;0.00;;;7.00;99.90;;;;;;5057538;28;20239;-81
2023/01/03 01:47:31;;;;;;;0.10;0.10;;;7.00;99.90;;;;;;5068382;28;20193;-80
2023/01/03 01:50:21;;;;;;;0.10;0.10;;;6.90;99.90;;;;;;5055835;28;20191;-81
2023/01/03 01:53:18;;;;;;;0.10;0.10;;;6.90;99.90;;;;;;5055256;28;20257;-80
2023/01/03 01:56:12;;;;;;;0.00;0.00;;;6.90;99.90;;;;;;5053074;28;20230;-81
2023/01/03 01:58:42;;;;;;;0.10;0.10;;;7.00;99.90;;;;;;5070533;28;20233;-80
2023/01/03 02:01:13;;;;;;;0.10;0.10;;;7.10;99.90;;;;;;5053683;28;20682;-80
2023/01/03 02:03:41;;;;;;;0.10;0.10;;;7.20;99.90;;;;;;5068919;28;20269;-80
2023/01/03 02:06:09;;;;;;;0.10;0.10;;;7.20;99.90;;;;;;5069020;28;20659;-80
2023/01/03 02:08:35;;;;;;;0.10;0.10;;;7.20;99.90;;;;;;5055944;28;20186;-80
2023/01/03 02:11:29;;;;;;;0.07;0.07;;;7.10;99.90;;;;;;5069783;28;20235;-80
2023/01/03 02:14:31;;;;;;;0.10;0.10;;;7.00;99.90;;;;;;5067915;28;20268;-80
2023/01/03 02:17:18;;;;;;;0.10;0.10;;;6.90;99.90;;;;;;5066848;28;20202;-80
2023/01/03 02:20:11;;;;;;;0.10;0.10;;;6.90;99.90;;;;;;5071292;28;20211;-81
2023/01/03 02:23:01;;;;;;;0.10;0.10;;;6.90;99.90;;;;;;5053959;28;20204;-79
2023/01/03 02:25:32;;;;;;;0.00;0.00;;;6.90;99.90;;;;;;5071277;28;20243;-80
2023/01/03 02:28:01;;;;;;;0.03;0.03;;;6.80;99.90;;;;;;5068083;28;20194;-80
2023/01/03 02:30:50;;;;;;;0.00;0.00;;;6.80;99.90;;;;;;5067544;28;20223;-80
2023/01/03 02:33:46;;;;;;;0.00;0.00;;;6.90;99.90;;;;;;5070078;28;20247;-81
2023/01/03 02:36:27;;;;;;;0.10;0.10;;;6.70;99.90;;;;;;5067298;28;20178;-80
2023/01/03 02:39:00;;;;;;;0.10;0.10;;;6.80;99.90;;;;;;5070008;28;20300;-80
2023/01/03 02:41:42;;;;;;;0.10;0.10;;;6.90;99.90;;;;;;5069515;28;20592;-81
2023/01/03 02:44:26;;;;;;;0.10;0.10;;;6.90;99.90;;;;;;5067877;28;20308;-80
2023/01/03 02:46:55;;;;;;;0.10;0.10;;;6.80;99.90;;;;;;5069463;28;20284;-80
2023/01/03 02:49:26;;;;;;;0.00;0.00;;;6.80;99.90;;;;;;5069031;28;20269;-80
2023/01/03 02:52:02;;;;;;;0.10;0.10;;;6.80;99.90;;;;;;5053625;28;20201;-79
2023/01/03 02:54:34;;;;;;;0.10;0.10;;;6.70;99.90;;;;;;5054698;28;20545;-81
2023/01/03 02:57:05;;;;;;;0.10;0.10;;;6.70;99.90;;;;;;5069023;28;20702;-80
2023/01/03 02:59:56;;;;;;;0.00;0.00;;;6.60;99.90;;;;;;5054649;28;20212;-80
2023/01/03 03:02:27;;;;;;;0.10;0.10;;;6.60;99.90;;;;;;5053833;28;20209;-79
2023/01/03 03:04:55;;;;;;;0.10;0.10;;;6.60;99.90;;;;;;5055482;28;20178;-80
2023/01/03 03:07:34;;;;;;;0.10;0.10;;;6.60;99.90;;;;;;5055395;28;20177;-80
2023/01/03 03:15:39;;;;;;;0.10;0.10;;;6.20;99.90;;;;;;5054293;28;20193;-81
2023/01/03 03:18:10;;;;;;;0.10;0.10;;;6.20;99.90;;;;;;5067327;28;20728;-80
2023/01/03 03:26:14;;;;;;;0.10;0.10;;;6.20;99.90;;;;;;5052195;28;20674;-80
2023/01/03 03:28:44;;;;;;;0.10;0.10;;;6.20;99.90;;;;;;5070173;28;20185;-79
2023/01/03 03:31:18;;;;;;;0.10;0.10;;;6.30;99.90;;;;;;5065051;28;20185;-80
2023/01/03 03:33:50;;;;;;;0.10;0.10;;;6.30;99.90;;;;;;5053995;28;20222;-80
2023/01/03 03:36:37;;;;;;;0.10;0.10;;;6.30;99.90;;;;;;5068340;28;20193;-80
2023/01/03 03:39:05;;;;;;;0.10;0.10;;;6.30;99.90;;;;;;5052381;28;20209;-80
2023/01/03 03:47:52;;;;;;;0.10;0.10;;;6.40;99.90;;;;;;5048893;28;20196;-81
2023/01/03 03:50:24;;;;;;;0.10;0.10;;;6.30;99.90;;;;;;5052337;28;20182;-80
2023/01/03 03:52:55;;;;;;;0.10;0.10;;;6.20;99.90;;;;;;5068557;28;20338;-80
2023/01/03 03:55:29;;;;;;;0.10;0.10;;;6.20;99.90;;;;;;5051954;28;20179;-79
2023/01/03 03:58:10;;;;;;;0.10;0.10;;;6.10;99.90;;;;;;5053505;28;20209;-81
2023/01/03 04:00:39;;;;;;;0.10;0.10;;;6.00;99.90;;;;;;5050795;28;20198;-81
2023/01/03 04:03:07;;;;;;;0.10;0.10;;;5.90;99.90;;;;;;5053935;28;20566;-80
2023/01/03 04:05:38;;;;;;;0.10;0.10;;;5.90;99.90;;;;;;5059569;28;20205;-80
2023/01/03 04:08:04;;;;;;;0.10;0.10;;;5.80;99.90;;;;;;5073601;28;20186;-80
2023/01/03 04:10:29;;;;;;;0.10;0.10;;;5.70;99.90;;;;;;5072177;28;20181;-80
2023/01/03 04:12:56;;;;;;;0.00;0.00;;;5.60;99.90;;;;;;5074922;28;20205;-80
2023/01/03 04:15:21;;;;;;;0.10;0.10;;;5.50;99.90;;;;;;5071285;28;20248;-80
2023/01/03 04:17:47;;;;;;;0.10;0.10;;;5.60;99.90;;;;;;5056133;28;20189;-81
2023/01/03 04:20:13;;;;;;;0.10;0.10;;;5.60;99.90;;;;;;5054399;28;20213;-80
2023/01/03 04:22:39;;;;;;;0.10;0.10;;;5.60;99.90;;;;;;5074783;28;20205;-81
2023/01/03 04:25:05;;;;;;;0.10;0.10;;;5.50;99.90;;;;;;5057631;28;20264;-80
2023/01/03 04:27:31;;;;;;;0.10;0.10;;;5.30;99.90;;;;;;5057367;28;20255;-81
2023/01/03 04:29:57;;;;;;;0.10;0.10;;;5.30;99.90;;;;;;5072146;28;20190;-81
2023/01/03 04:32:22;;;;;;;0.10;0.10;;;5.30;99.90;;;;;;5054196;28;20259;-81
2023/01/03 04:34:48;;;;;;;0.10;0.10;;;5.40;99.90;;;;;;5055985;28;20675;-81
2023/01/03 04:37:13;;;;;;;0.10;0.10;;;5.30;99.90;;;;;;5069140;28;20189;-80
2023/01/03 04:39:39;;;;;;;0.10;0.10;;;5.30;99.90;;;;;;5056708;28;20297;-81
2023/01/03 04:44:00;;;;;;;0.10;0.10;;;5.10;99.90;;;;;;5068644;28;20209;-81
2023/01/03 04:44:50;;;;;;;0.07;0.07;;;5.00;99.90;;;;;;5055135;28;20189;-80
2023/01/03 04:47:15;;;;;;;0.07;0.07;;;4.90;99.90;;;;;;5055208;28;20277;-80
2023/01/03 04:49:45;;;;;;;0.10;0.10;;;5.00;99.90;;;;;;5055105;28;20300;-81
2023/01/03 04:52:12;;;;;;;0.10;0.10;;;5.00;99.90;;;;;;5051847;28;20292;-80
2023/01/03 04:54:38;;;;;;;0.10;0.10;;;5.20;99.90;;;;;;5055650;28;20309;-80
2023/01/03 04:57:04;;;;;;;0.10;0.10;;;5.20;99.90;;;;;;5054872;28;20284;-81
2023/01/03 04:59:29;;;;;;;0.10;0.10;;;5.20;99.90;;;;;;5071993;28;20320;-80
2023/01/03 05:01:55;;;;;;;0.10;0.10;;;5.30;99.90;;;;;;5069873;28;20228;-80
2023/01/03 05:04:20;;;;;;;0.10;0.10;;;5.30;99.90;;;;;;5071705;28;20180;-80
2023/01/03 05:06:46;;;;;;;0.10;0.10;;;5.30;99.90;;;;;;5069665;28;20178;-80
2023/01/03 05:09:11;;;;;;;0.10;0.10;;;5.30;99.90;;;;;;5068387;28;20193;-80
2023/01/03 05:11:37;;;;;;;0.10;0.10;;;5.30;99.90;;;;;;5055809;28;20210;-80
2023/01/03 05:14:02;;;;;;;0.00;0.00;;;5.30;99.90;;;;;;5069139;28;20258;-81
2023/01/03 05:16:28;;;;;;;0.10;0.10;;;5.30;99.90;;;;;;5058174;28;20211;-81
2023/01/03 05:18:55;;;;;;;0.00;0.00;;;5.30;99.90;;;;;;5055983;28;20224;-80
2023/01/03 05:26:53;;;;;;;0.10;0.10;;;5.30;99.90;;;;;;5056520;28;20573;-80
2023/01/03 05:29:20;;;;;;;0.10;0.10;;;5.20;99.90;;;;;;5072236;28;20181;-81
2023/01/03 05:31:46;;;;;;;0.00;0.00;;;5.00;99.90;;;;;;5054891;28;20565;-81
2023/01/03 05:34:12;;;;;;;0.10;0.10;;;4.90;99.90;;;;;;5055771;28;20173;-80
2023/01/03 05:36:38;;;;;;;0.10;0.10;;;4.90;99.90;;;;;;5070844;28;20186;-80
2023/01/03 05:39:04;;;;;;;0.10;0.10;;;4.90;99.90;;;;;;5069896;28;20264;-81
2023/01/03 05:44:14;;;;;;;0.10;0.10;;;4.90;99.90;;;;;;5054629;28;20677;-81
2023/01/03 05:46:40;;;;;;;0.10;0.10;;;4.90;99.90;;;;;;5054216;28;20181;-80
2023/01/03 05:49:05;;;;;;;0.10;0.10;;;4.90;99.90;;;;;;5054776;28;20554;-81
2023/01/03 05:51:31;;;;;;;0.00;0.00;;;4.80;99.90;;;;;;5054872;28;20214;-80
2023/01/03 05:53:56;;;;;;;0.00;0.00;;;4.80;99.90;;;;;;5052853;28;21227;-81
2023/01/03 05:56:22;;;;;;;0.00;0.00;;;4.70;99.90;;;;;;5053488;28;20686;-80
2023/01/03 05:58:48;;;;;;;0.10;0.10;;;4.50;99.90;;;;;;5070842;28;20217;-80
2023/01/03 06:01:14;;;;;;;0.10;0.10;;;4.40;99.90;;;;;;5067388;28;20178;-81
2023/01/03 06:03:43;;;;;;;0.10;0.10;;;4.40;99.90;;;;;;5051979;28;22101;-80
2023/01/03 06:06:09;;;;;;;0.00;0.00;;;4.50;99.90;;;;;;5069986;28;20206;-80
2023/01/03 06:08:37;;;;;;;0.07;0.07;;;4.50;99.90;;;;;;5053407;28;20209;-79
2023/01/03 06:11:11;;;;;;;0.10;0.10;;;4.50;99.90;;;;;;5068463;28;20184;-80
2023/01/03 06:13:36;;;;;;;0.10;0.10;;;4.40;99.90;;;;;;5069221;28;21155;-80
2023/01/03 06:19:06;;;;;;;0.00;0.00;;;4.20;99.90;;;;;;5053871;28;20226;-80
2023/01/03 06:21:32;;;;;;;0.10;0.10;;;4.30;99.90;;;;;;5055337;28;20205;-80
2023/01/03 06:23:58;;;;;;;0.10;0.10;;;4.30;99.90;;;;;;5064907;28;20196;-80
2023/01/03 06:26:24;;;;;;;0.00;0.00;;;4.30;99.90;;;;;;5053218;28;20196;-80
2023/01/03 06:28:50;;;;;;;0.10;0.10;;;4.40;99.90;;;;;;5053599;28;20692;-81
2023/01/03 06:31:16;;;;;;;0.10;0.10;;;4.50;99.90;;;;;;5051651;28;20240;-81
2023/01/03 06:33:42;;;;;;;0.10;0.10;;;4.40;99.90;;;;;;5069573;28;20189;-80
2023/01/03 06:36:13;;;;;;;0.10;0.10;;;4.30;99.90;;;;;;5065348;28;20201;-80
2023/01/03 06:38:39;;;;;;;0.10;0.10;;;4.30;99.90;;;;;;5051069;28;20296;-80
2023/01/03 06:41:05;;;;;;;0.10;0.10;;;4.20;99.90;;;;;;5067733;28;20283;-80
2023/01/03 06:43:31;;;;;;;0.10;0.10;;;4.20;99.90;;;;;;5068727;28;20287;-81
2023/01/03 06:54:36;;;;;;;0.00;0.00;;;4.00;99.90;;;;;;5053742;28;20569;-80
2023/01/03 06:57:02;;;;;;;0.00;0.00;;;4.10;99.90;;;;;;5050586;28;20690;-81
2023/01/03 06:59:28;;;;;;;0.00;0.00;;;4.10;99.90;;;;;;5051454;28;20213;-80
2023/01/03 07:01:54;;;;;;;0.10;0.10;;;4.20;99.90;;;;;;5053985;28;20682;-80
2023/01/03 07:04:22;;;;;;;0.00;0.00;;;4.20;99.90;;;;;;5067729;28;20194;-80
2023/01/03 07:06:47;;;;;;;0.10;0.10;;;4.20;99.90;;;;;;5067021;28;20275;-80
2023/01/03 07:09:13;;;;;;;0.10;0.10;;;4.20;99.90;;;;;;5068129;28;20231;-81
2023/01/03 07:11:40;;;;;;;0.10;0.10;;;4.30;99.90;;;;;;5050805;28;20219;-81
2023/01/03 07:14:07;;;;;;;0.10;0.10;;;4.50;99.90;;;;;;5055573;28;20214;-80
2023/01/03 07:16:41;;;;;;;0.10;0.10;;;4.70;99.90;;;;;;5068610;28;20217;-79
2023/01/03 07:19:09;;;;;;;0.10;0.10;;;4.80;99.90;;;;;;5055378;28;20279;-80
2023/01/03 07:21:35;;;;;;;0.10;0.10;;;5.00;99.90;;;;;;5052780;28;20205;-80
2023/01/03 07:24:02;;;;;;;0.10;0.10;;;5.10;99.90;;;;;;5052538;28;20191;-80
2023/01/03 07:26:30;;;;;;;0.07;0.07;;;5.30;99.90;;;;;;5051187;28;20552;-80
2023/01/03 07:28:57;;;;;;;0.10;0.10;;;5.30;99.90;;;;;;5069467;28;20184;-80
2023/01/03 07:31:23;;;;;;;0.10;0.10;;;5.20;99.90;;;;;;5068839;28;20246;-79
2023/01/03 07:33:49;;;;;;;0.00;0.00;;;5.10;99.90;;;;;;5069894;28;20189;-82
2023/01/03 07:36:15;;;;;;;0.10;0.10;;;5.00;99.90;;;;;;5054659;28;20200;-80
2023/01/03 07:38:43;;;;;;;0.10;0.10;;;5.10;99.90;;;;;;5051721;28;20205;-80
2023/01/03 07:41:10;;;;;;;0.00;0.00;;;5.20;99.90;;;;;;5050006;28;20193;-80
2023/01/03 07:43:41;;;;;;;0.10;0.10;;;5.30;99.90;;;;;;5068090;28;20257;-79
2023/01/03 07:46:19;;;;;;;0.10;0.10;;;5.40;99.90;;;;;;5050909;28;20553;-80
2023/01/03 07:48:46;;;;;;;0.10;0.10;;;5.30;99.90;;;;;;5052421;28;20189;-80
2023/01/03 07:51:14;;;;;;;0.00;0.00;;;5.30;99.90;;;;;;5069409;28;20212;-79
2023/01/03 07:53:40;;;;;;;0.10;0.10;;;5.20;99.90;;;;;;5050565;28;20204;-80
2023/01/03 07:56:13;;;;;;;0.10;0.10;;;5.00;99.90;;;;;;5052781;28;20184;-81
2023/01/03 07:58:41;;;;;;;0.00;0.00;;;5.00;99.90;;;;;;5052132;28;22166;-81
2023/01/03 08:01:13;;;;;;;0.10;0.10;;;4.90;99.90;;;;;;5050265;28;20918;-82
2023/01/03 08:03:39;;;;;;;0.00;0.00;;;4.80;99.90;;;;;;5068155;28;20181;-83
2023/01/03 08:06:10;;;;;;;0.10;0.10;;;4.70;99.90;;;;;;5069347;28;20196;-86
2023/01/03 08:08:36;;;;;;;0.10;0.10;;;4.70;99.90;;;;;;5056598;28;20189;-85
2023/01/03 08:13:47;;;;;;;0.10;0.10;;;5.10;99.90;;;;;;5052986;28;20268;-81
2023/01/03 08:16:15;;;;;;;0.10;0.10;;;5.30;99.90;;;;;;5066855;28;20189;-84
2023/01/03 08:18:41;;;;;;;0.00;0.00;;;5.50;99.90;;;;;;5069561;28;20331;-82
2023/01/03 08:21:10;;;;;;;0.03;0.03;;;5.70;99.90;;;;;;5051784;28;20262;-83
2023/01/03 08:23:37;;;;;;;0.10;0.10;;;5.60;99.90;;;;;;5048804;28;20218;-81
2023/01/03 08:26:05;;;;;;;0.10;0.10;;;5.70;99.90;;;;;;5049700;28;20718;-81
2023/01/03 08:28:31;;;;;;;0.00;0.00;;;5.80;99.90;;;;;;5068252;28;20674;-80
2023/01/03 08:31:01;;;;;;;0.10;0.10;;;6.00;99.90;;;;;;5066527;28;21334;-81
2023/01/03 08:33:30;;;;;;;0.10;0.10;;;5.90;99.90;;;;;;5050520;28;20219;-81
2023/01/03 08:36:02;;;;;;;0.10;0.10;;;5.90;99.90;;;;;;5066334;28;20283;-81
2023/01/03 08:38:45;;;;;;;0.10;0.10;;;5.60;99.90;;;;;;5049979;28;20244;-80
2023/01/03 08:41:15;;;;;;;0.10;0.10;;;5.80;99.90;;;;;;5067848;28;20184;-81
2023/01/03 08:43:43;;;;;;;0.10;0.10;;;6.10;99.90;;;;;;5069555;28;20194;-81
2023/01/03 08:46:10;;;;;;;0.10;0.10;;;6.10;99.90;;;;;;5064603;28;20181;-81
2023/01/03 08:48:36;;;;;;;0.10;0.10;;;6.10;99.90;;;;;;5068021;28;20213;-80
2023/01/03 08:51:02;;;;;;;0.00;0.00;;;6.10;99.90;;;;;;5070722;28;20202;-81
2023/01/03 08:53:27;;;;;;;0.10;0.10;;;5.90;99.90;;;;;;5073639;28;20201;-81
2023/01/03 08:55:53;;;;;;;0.10;0.10;;;6.10;99.90;;;;;;5058553;28;20189;-82
2023/01/03 08:58:19;;;;;;;0.10;0.10;;;6.10;99.90;;;;;;5056106;28;20204;-81
2023/01/03 09:00:44;;;;;;;0.10;0.10;;;6.20;99.90;;;;;;5057846;28;20209;-81
2023/01/03 09:03:10;;;;;;;0.10;0.10;;;6.30;99.90;;;;;;5074306;28;20204;-82
2023/01/03 09:05:35;;;;;;;0.10;0.10;;;6.60;99.90;;;;;;5059266;28;20178;-81
2023/01/03 09:08:01;;;;;;;0.10;0.10;;;6.60;99.90;;;;;;5056266;28;20177;-82
2023/01/03 09:10:26;;;;;;;0.10;0.10;;;6.60;99.90;;;;;;5056118;28;20560;-81
2023/01/03 09:12:52;;;;;;;0.10;0.10;;;6.80;99.90;;;;;;5074974;28;20242;-81
2023/01/03 09:15:18;;;;;;;0.10;0.10;;;6.90;99.90;;;;;;5073174;28;20218;-82
2023/01/03 09:17:46;;;;;;;0.00;0.00;;;7.10;99.90;;;;;;5071337;28;20221;-81
2023/01/03 09:20:12;;;;;;;0.10;0.10;;;7.40;99.90;;;;;;5056700;28;20221;-81
2023/01/03 09:22:38;;;;;;;0.10;0.10;;;7.50;99.90;;;;;;5072578;28;20243;-81
2023/01/03 09:25:04;;;;;;;0.30;0.30;;;7.50;99.90;;;;;;5059733;28;20213;-81
2023/01/03 09:27:30;;;;;;;0.10;0.10;;;7.40;99.90;;;;;;5071963;28;20185;-81
2023/01/03 09:29:55;;;;;;;0.10;0.10;;;7.50;99.90;;;;;;5074216;28;20190;-81
2023/01/03 09:32:21;;;;;;;0.10;0.10;;;7.20;99.90;;;;;;5072969;28;20670;-81
2023/01/03 09:34:46;;;;;;;0.00;0.00;;;7.30;99.90;;;;;;5071186;28;20199;-82
2023/01/03 09:37:12;;;;;;;0.10;0.10;;;7.50;99.90;;;;;;5072234;28;21973;-80
2023/01/03 09:39:39;;;;;;;0.10;0.10;;;7.70;99.90;;;;;;5072915;28;20590;-85
2023/01/03 09:44:51;;;;;;;0.10;0.10;;;7.90;99.90;;;;;;5060489;28;20271;-81
2023/01/03 09:47:20;;;;;;;0.10;0.10;;;8.10;99.90;;;;;;5054182;28;20197;-81
2023/01/03 09:49:46;;;;;;;0.10;0.10;;;7.90;99.90;;;;;;5074584;28;20551;-81
2023/01/03 10:04:31;;;;;;;0.10;0.10;;;8.50;99.90;;;;;;5051150;28;20196;-82
2023/01/03 10:07:08;;;;;;;0.10;0.10;;;8.00;99.90;;;;;;5054854;28;20411;-80
2023/01/03 10:09:52;;;;;;;0.10;0.10;;;7.70;99.90;;;;;;5075279;28;20452;-80
2023/01/03 10:12:37;;;;;;;0.10;0.10;;;7.90;99.90;;;;;;5060873;28;20211;-80
2023/01/03 10:15:39;;;;;;;0.10;0.10;;;7.90;99.90;;;;;;5076283;28;20195;-83
2023/01/03 10:18:29;;;;;;;0.00;0.00;;;8.20;99.90;;;;;;5063672;28;20192;-82
2023/01/03 10:21:25;;;;;;;0.10;0.10;;;7.80;99.90;;;;;;5074638;28;20186;-82
2023/01/03 10:23:53;;;;;;;0.10;0.10;;;7.90;99.90;;;;;;5055588;28;20350;-82
2023/01/03 10:26:20;;;;;;;0.10;0.10;;;8.20;99.90;;;;;;5056862;28;20708;-81
2023/01/03 10:28:46;;;;;;;0.10;0.10;;;8.40;99.90;;;;;;5058362;28;20510;-81
2023/01/03 10:31:27;;;;;;;0.10;0.10;;;8.40;99.90;;;;;;5062664;28;20193;-82
2023/01/03 10:33:52;;;;;;;0.10;0.10;;;8.10;99.90;;;;;;5075327;28;20183;-80
2023/01/03 10:36:20;;;;;;;0.10;0.10;;;8.10;99.90;;;;;;5061453;28;20184;-82
2023/01/03 10:38:46;;;;;;;0.00;0.00;;;8.40;99.90;;;;;;5075439;28;20541;-82
2023/01/03 10:41:43;;;;;;;0.10;0.10;;;8.20;99.90;;;;;;5073470;28;20189;-82
2023/01/03 10:44:25;;;;;;;0.10;0.10;;;8.40;99.90;;;;;;5074318;28;20531;-80
2023/01/03 10:46:53;;;;;;;0.10;0.10;;;8.50;99.90;;;;;;5055748;28;20511;-82
2023/01/03 10:49:21;;;;;;;0.10;0.10;;;7.80;99.90;;;;;;5056113;28;20186;-82
2023/01/03 10:51:52;;;;;;;0.10;0.10;;;7.80;99.90;;;;;;5058200;28;20207;-81
2023/01/03 10:54:18;;;;;;;0.07;0.07;;;7.60;99.90;;;;;;5058975;28;20185;-82
2023/01/03 10:56:46;;;;;;;0.10;0.10;;;7.90;99.90;;;;;;5057417;28;20193;-81
2023/01/03 10:59:15;;;;;;;0.00;0.00;;;8.10;99.90;;;;;;5058755;28;20220;-82
2023/01/03 11:02:11;;;;;;;0.10;0.10;;;8.20;99.90;;;;;;5054297;28;20238;-80
2023/01/03 11:04:37;;;;;;;0.10;0.10;;;8.40;99.90;;;;;;5069745;28;20179;-82
2023/01/03 11:07:15;;;;;;;0.10;0.10;;;8.60;99.90;;;;;;5053072;28;20179;-81
2023/01/03 11:09:52;;;;;;;0.10;0.10;;;8.60;99.90;;;;;;5052828;28;20223;-81
2023/01/03 11:12:20;;;;;;;0.10;0.10;;;8.70;99.90;;;;;;5067541;28;20336;-81
2023/01/03 11:14:55;;;;;;;0.00;0.00;;;8.80;99.90;;;;;;5053640;28;20188;-82
2023/01/03 11:17:23;;;;;;;0.03;0.03;;;9.00;99.90;;;;;;5052314;28;20547;-82
2023/01/03 11:19:50;;;;;;;0.10;0.10;;;8.90;99.90;;;;;;5053377;28;20211;-82
2023/01/03 11:22:33;;;;;;;0.10;0.10;;;9.00;99.90;;;;;;5052058;28;20201;-81
2023/01/03 11:25:33;;;;;;;0.10;0.10;;;9.10;99.90;;;;;;5056515;28;20181;-82
2023/01/03 11:28:31;;;;;;;0.10;0.10;;;9.20;99.90;;;;;;5053686;28;20193;-81
2023/01/03 11:31:34;;;;;;;0.10;0.10;;;9.40;99.90;;;;;;5036083;28;20193;-82
2023/01/03 11:34:10;;;;;;;0.00;0.00;;;9.40;99.90;;;;;;5037413;28;20284;-81
2023/01/03 11:36:55;;;;;;;0.10;0.10;;;9.40;99.90;;;;;;5054048;28;20524;-82
2023/01/03 11:39:57;;;;;;;0.10;0.10;;;9.50;99.90;;;;;;5053272;28;20333;-82
2023/01/03 11:42:33;;;;;;;0.10;0.10;;;9.20;99.90;;;;;;5051599;28;20280;-81
2023/01/03 11:45:10;;;;;;;0.00;0.00;;;9.10;99.90;;;;;;5068080;28;20181;-81
2023/01/03 11:48:06;;;;;;;0.10;0.10;;;9.20;99.90;;;;;;5053222;28;20246;-81
2023/01/03 11:50:59;;;;;;;0.10;0.10;;;9.20;99.90;;;;;;5051641;28;20175;-82
2023/01/03 11:53:37;;;;;;;0.10;0.10;;;8.70;99.90;;;;;;5068430;28;20759;-80
2023/01/03 11:56:29;;;;;;;0.10;0.10;;;8.40;99.90;;;;;;5054009;28;20658;-82
2023/01/03 11:59:17;;;;;;;0.10;0.10;;;8.50;99.90;;;;;;5065991;28;20207;-80
2023/01/03 12:02:17;;;;;;;0.10;0.10;;;8.50;99.90;;;;;;5068516;28;20204;-81
2023/01/03 12:05:09;;;;;;;0.10;0.10;;;8.20;99.90;;;;;;5052066;28;20189;-81
2023/01/03 12:07:58;;;;;;;0.10;0.10;;;8.20;99.90;;;;;;5068148;28;20206;-81
2023/01/03 12:10:46;;;;;;;0.00;0.00;;;8.40;99.90;;;;;;5054569;28;20211;-82
2023/01/03 12:13:22;;;;;;;0.10;0.10;;;8.60;99.90;;;;;;5050555;28;20234;-82
2023/01/03 12:16:12;;;;;;;0.10;0.10;;;8.70;99.90;;;;;;5051375;28;20959;-82
2023/01/03 12:18:41;;;;;;;0.10;0.10;;;8.90;99.90;;;;;;5046794;28;20195;-83
2023/01/03 12:21:36;;;;;;;0.00;0.00;;;9.20;99.90;;;;;;5068070;28;20200;-82
2023/01/03 12:24:20;;;;;;;0.10;0.10;;;9.30;99.90;;;;;;5049858;28;20287;-82
2023/01/03 12:26:52;;;;;;;0.10;0.10;;;9.40;99.90;;;;;;5053737;28;20271;-83
2023/01/03 12:29:42;;;;;;;0.10;0.10;;;9.50;99.90;;;;;;5071537;28;20325;-82
2023/01/03 12:32:15;;;;;;;0.10;0.10;;;9.50;99.90;;;;;;5054741;28;20226;-82
2023/01/03 12:35:12;;;;;;;0.10;0.10;;;9.60;99.90;;;;;;5069227;28;20673;-83
2023/01/03 12:37:39;;;;;;;0.10;0.10;;;9.70;99.90;;;;;;5050523;28;20222;-83
2023/01/03 12:40:20;;;;;;;0.10;0.10;;;9.70;99.90;;;;;;5058676;28;20223;-82
2023/01/03 12:42:48;;;;;;;0.10;0.10;;;9.80;99.90;;;;;;5057487;28;20228;-83
2023/01/03 12:45:37;;;;;;;0.03;0.03;;;9.80;99.90;;;;;;5057431;28;20533;-83
2023/01/03 12:48:17;;;;;;;0.10;0.10;;;9.80;99.90;;;;;;5074010;28;20180;-83
2023/01/03 12:50:48;;;;;;;0.10;0.10;;;9.80;99.90;;;;;;5050787;28;20192;-82
2023/01/03 12:53:33;;;;;;;0.10;0.10;;;9.90;99.90;;;;;;5055729;28;20221;-82
2023/01/03 12:56:16;;;;;;;0.07;0.07;;;10.00;99.90;;;;;;5070111;28;20189;-81
2023/01/03 12:59:00;;;;;;;0.10;0.10;;;10.10;99.90;;;;;;5054420;28;20566;-82
2023/01/03 13:01:43;;;;;;;0.10;0.10;;;10.00;99.90;;;;;;5065588;28;20176;-83
2023/01/03 13:04:18;;;;;;;0.10;0.10;;;9.70;99.90;;;;;;5055150;28;20199;-83
2023/01/03 13:07:15;;;;;;;0.10;0.10;;;9.40;99.90;;;;;;5053899;28;20742;-82
2023/01/03 13:10:06;;;;;;;0.10;0.10;;;9.20;99.90;;;;;;5057592;28;20196;-83
2023/01/03 13:12:34;;;;;;;0.10;0.10;;;9.10;99.90;;;;;;5058588;28;20205;-82
2023/01/03 13:15:02;;;;;;;0.10;0.10;;;9.10;99.90;;;;;;5073407;28;20177;-82
2023/01/03 13:17:49;;;;;;;0.10;0.10;;;9.10;99.90;;;;;;5072280;28;20193;-82
2023/01/03 13:20:35;;;;;;;0.10;0.10;;;9.40;99.90;;;;;;5055265;28;20201;-83
2023/01/03 13:23:56;;;;;;;0.07;0.07;;;9.40;99.90;;;;;;5073251;28;20909;-82
2023/01/03 13:26:27;;;;;;;0.10;0.10;;;9.60;99.90;;;;;;5057758;28;20185;-83
2023/01/03 13:29:31;;;;;;;0.07;0.07;;;9.70;99.90;;;;;;5072390;28;20187;-82
2023/01/03 13:32:24;;;;;;;0.10;0.10;;;9.70;99.90;;;;;;5073616;28;20281;-82
2023/01/03 13:34:53;;;;;;;0.10;0.10;;;9.60;99.90;;;;;;5072842;28;20211;-83
2023/01/03 13:37:41;;;;;;;0.00;0.00;;;9.50;99.90;;;;;;5073030;28;20177;-83
2023/01/03 13:40:24;;;;;;;0.10;0.10;;;9.50;99.90;;;;;;5072346;28;20307;-84
2023/01/03 13:43:11;;;;;;;0.10;0.10;;;9.70;99.90;;;;;;5051801;28;22341;-80
2023/01/03 13:45:37;;;;;;;0.10;0.10;;;9.90;99.90;;;;;;5051286;28;20169;-82
2023/01/03 13:48:20;;;;;;;0.10;0.10;;;10.00;99.90;;;;;;5052394;28;20592;-81
2023/01/03 13:51:06;;;;;;;0.10;0.10;;;10.10;99.90;;;;;;5051708;28;20664;-81
2023/01/03 13:53:37;;;;;;;0.10;0.10;;;10.10;99.90;;;;;;5067052;28;20208;-81
2023/01/03 13:56:15;;;;;;;0.10;0.10;;;10.10;99.90;;;;;;5070559;28;20182;-80
2023/01/03 13:58:53;;;;;;;0.10;0.10;;;10.00;99.90;;;;;;5067792;28;20200;-82
2023/01/03 14:01:30;;;;;;;0.10;0.10;;;9.90;99.90;;;;;;5070809;28;20199;-82
2023/01/03 14:04:21;;;;;;;0.00;0.00;;;9.90;99.90;;;;;;5055323;28;20688;-81
2023/01/03 14:07:09;;;;;;;0.10;0.10;;;9.90;99.90;;;;;;5073255;28;20185;-82
2023/01/03 14:09:56;;;;;;;0.10;0.10;;;9.80;99.90;;;;;;5057417;28;20251;-82
2023/01/03 14:12:28;;;;;;;0.10;0.10;;;9.90;99.90;;;;;;5073832;28;20208;-81
2023/01/03 14:14:55;;;;;;;0.10;0.10;;;9.80;99.90;;;;;;5071541;28;20205;-81
2023/01/03 14:17:28;;;;;;;0.10;0.10;;;9.80;99.90;;;;;;5058828;28;20384;-81
2023/01/03 14:19:57;;;;;;;0.10;0.10;;;9.80;99.90;;;;;;5056453;28;20212;-82
2023/01/03 14:22:32;;;;;;;0.10;0.10;;;9.70;99.90;;;;;;5051968;28;20298;-82
2023/01/03 14:24:58;;;;;;;0.10;0.10;;;9.60;99.90;;;;;;5057191;28;20185;-81